createdAt,value
2023-03-13T00:00:01.429Z,97695.00
2023-03-13T00:00:11.457Z,97693.00
2023-03-13T00:00:21.445Z,97691.00
2023-03-13T00:00:31.569Z,97695.00
2023-03-13T00:00:41.573Z,97693.00
2023-03-13T00:00:51.581Z,97693.00
2023-03-13T00:01:01.600Z,97691.00
2023-03-13T00:01:11.597Z,97691.00
2023-03-13T00:01:21.615Z,97691.00
2023-03-13T00:01:31.870Z,97691.00
2023-03-13T00:01:41.918Z,97691.00
2023-03-13T00:01:51.994Z,97691.00
2023-03-13T00:02:02.028Z,97693.00
2023-03-13T00:02:12.088Z,97691.00
2023-03-13T00:02:22.143Z,97691.00
2023-03-13T00:02:32.314Z,97693.00
2023-03-13T00:02:42.244Z,97693.00
2023-03-13T00:02:52.245Z,97691.00
2023-03-13T00:03:02.244Z,97691.00
2023-03-13T00:03:12.509Z,97693.00
2023-03-13T00:03:22.511Z,97691.00
2023-03-13T00:03:32.640Z,97689.00
2023-03-13T00:03:42.910Z,97689.00
2023-03-13T00:03:53.095Z,97691.00
2023-03-13T00:04:03.080Z,97691.00
2023-03-13T00:04:13.327Z,97691.00
2023-03-13T00:04:23.363Z,97691.00
2023-03-13T00:04:33.394Z,97691.00
2023-03-13T00:04:43.449Z,97691.00
2023-03-13T00:04:53.561Z,97689.00
2023-03-13T00:05:03.595Z,97689.00
2023-03-13T00:05:13.650Z,97687.00
2023-03-13T00:05:23.795Z,97687.00
2023-03-13T00:05:33.839Z,97687.00
2023-03-13T00:05:43.843Z,97687.00
2023-03-13T00:05:53.846Z,97687.00
2023-03-13T00:06:03.987Z,97685.00
2023-03-13T00:06:13.987Z,97687.00
2023-03-13T00:06:24.252Z,97685.00
2023-03-13T00:06:34.258Z,97685.00
2023-03-13T00:06:44.267Z,97683.00
2023-03-13T00:06:54.267Z,97681.00
2023-03-13T00:07:04.389Z,97681.00
2023-03-13T00:07:14.400Z,97683.00
2023-03-13T00:07:24.413Z,97681.00
2023-03-13T00:07:34.418Z,97683.00
2023-03-13T00:07:44.430Z,97681.00
2023-03-13T00:07:54.428Z,97683.00
2023-03-13T00:08:04.703Z,97683.00
2023-03-13T00:08:14.719Z,97683.00
2023-03-13T00:08:24.710Z,97683.00
2023-03-13T00:08:34.716Z,97683.00
2023-03-13T00:08:44.719Z,97681.00
2023-03-13T00:08:54.782Z,97683.00
2023-03-13T00:09:04.774Z,97681.00
2023-03-13T00:09:14.785Z,97679.00
2023-03-13T00:09:24.902Z,97679.00
2023-03-13T00:09:34.913Z,97679.00
2023-03-13T00:09:45.176Z,97681.00
2023-03-13T00:09:55.183Z,97681.00
2023-03-13T00:10:05.189Z,97683.00
2023-03-13T00:10:15.215Z,97681.00
2023-03-13T00:10:25.221Z,97685.00
2023-03-13T00:10:35.226Z,97685.00
2023-03-13T00:10:45.239Z,97683.00
2023-03-13T00:10:55.244Z,97685.00
2023-03-13T00:11:05.380Z,97689.00
2023-03-13T00:11:15.389Z,97689.00
2023-03-13T00:11:25.638Z,97689.00
2023-03-13T00:11:35.646Z,97687.00
2023-03-13T00:11:45.771Z,97687.00
2023-03-13T00:11:56.033Z,97685.00
2023-03-13T00:12:06.144Z,97687.00
2023-03-13T00:12:16.146Z,97689.00
2023-03-13T00:12:26.409Z,97687.00
2023-03-13T00:12:36.412Z,97689.00
2023-03-13T00:12:46.425Z,97687.00
2023-03-13T00:12:56.434Z,97685.00
2023-03-13T00:13:06.551Z,97687.00
2023-03-13T00:13:16.548Z,97687.00
2023-03-13T00:13:26.564Z,97687.00
2023-03-13T00:13:36.581Z,97687.00
2023-03-13T00:13:46.572Z,97685.00
2023-03-13T00:13:56.609Z,97687.00
2023-03-13T00:14:06.865Z,97685.00
2023-03-13T00:14:16.865Z,97689.00
2023-03-13T00:14:26.986Z,97687.00
2023-03-13T00:14:37.241Z,97685.00
2023-03-13T00:14:47.378Z,97683.00
2023-03-13T00:14:57.385Z,97685.00
2023-03-13T00:15:07.638Z,97683.00
2023-03-13T00:15:17.645Z,97683.00
2023-03-13T00:15:27.763Z,97683.00
2023-03-13T00:15:38.028Z,97683.00
2023-03-13T00:15:48.161Z,97683.00
2023-03-13T00:15:58.159Z,97683.00
2023-03-13T00:16:08.498Z,97683.00
2023-03-13T00:16:18.553Z,97681.00
2023-03-13T00:16:28.568Z,97681.00
2023-03-13T00:16:38.738Z,97681.00
2023-03-13T00:16:48.787Z,97681.00
2023-03-13T00:16:58.701Z,97681.00
2023-03-13T00:17:08.886Z,97683.00
2023-03-13T00:17:18.922Z,97683.00
2023-03-13T00:17:29.044Z,97683.00
2023-03-13T00:17:39.043Z,97681.00
2023-03-13T00:17:49.304Z,97683.00
2023-03-13T00:17:59.300Z,97683.00
2023-03-13T00:18:09.425Z,97683.00
2023-03-13T00:18:19.686Z,97683.00
2023-03-13T00:18:29.806Z,97683.00
2023-03-13T00:18:39.814Z,97681.00
2023-03-13T00:18:50.093Z,97683.00
2023-03-13T00:19:00.096Z,97681.00
2023-03-13T00:19:10.078Z,97681.00
2023-03-13T00:19:20.078Z,97681.00
2023-03-13T00:19:30.115Z,97681.00
2023-03-13T00:19:40.107Z,97685.00
2023-03-13T00:19:50.099Z,97683.00
2023-03-13T00:20:00.113Z,97685.00
2023-03-13T00:20:10.115Z,97685.00
2023-03-13T00:20:20.118Z,97683.00
2023-03-13T00:20:30.131Z,97683.00
2023-03-13T00:20:40.124Z,97687.00
2023-03-13T00:20:50.259Z,97683.00
2023-03-13T00:21:00.268Z,97681.00
2023-03-13T00:21:10.272Z,97683.00
2023-03-13T00:21:20.271Z,97685.00
2023-03-13T00:21:30.398Z,97685.00
2023-03-13T00:21:40.532Z,97685.00
2023-03-13T00:21:50.657Z,97685.00
2023-03-13T00:22:00.667Z,97685.00
2023-03-13T00:22:10.914Z,97683.00
2023-03-13T00:22:20.924Z,97685.00
2023-03-13T00:22:30.933Z,97685.00
2023-03-13T00:22:40.940Z,97685.00
2023-03-13T00:22:50.953Z,97685.00
2023-03-13T00:23:00.958Z,97685.00
2023-03-13T00:23:10.968Z,97685.00
2023-03-13T00:23:20.980Z,97683.00
2023-03-13T00:23:31.113Z,97683.00
2023-03-13T00:23:41.108Z,97683.00
2023-03-13T00:23:51.368Z,97683.00
2023-03-13T00:24:01.380Z,97685.00
2023-03-13T00:24:11.383Z,97683.00
2023-03-13T00:24:21.388Z,97685.00
2023-03-13T00:24:31.387Z,97685.00
2023-03-13T00:24:41.398Z,97685.00
2023-03-13T00:24:51.532Z,97685.00
2023-03-13T00:25:01.536Z,97685.00
2023-03-13T00:25:11.551Z,97685.00
2023-03-13T00:25:21.563Z,97687.00
2023-03-13T00:25:31.843Z,97685.00
2023-03-13T00:25:41.841Z,97685.00
2023-03-13T00:25:51.961Z,97685.00
2023-03-13T00:26:02.221Z,97685.00
2023-03-13T00:26:12.224Z,97685.00
2023-03-13T00:26:22.227Z,97683.00
2023-03-13T00:26:32.257Z,97683.00
2023-03-13T00:26:42.261Z,97685.00
2023-03-13T00:26:52.270Z,97683.00
2023-03-13T00:27:02.264Z,97683.00
2023-03-13T00:27:12.280Z,97683.00
2023-03-13T00:27:22.282Z,97683.00
2023-03-13T00:27:32.295Z,97681.00
2023-03-13T00:27:42.311Z,97681.00
2023-03-13T00:27:52.326Z,97681.00
2023-03-13T00:28:02.332Z,97681.00
2023-03-13T00:28:12.328Z,97681.00
2023-03-13T00:28:22.446Z,97683.00
2023-03-13T00:28:32.918Z,97677.00
2023-03-13T00:28:42.550Z,97677.00
2023-03-13T00:28:52.683Z,97677.00
2023-03-13T00:29:02.684Z,97677.00
2023-03-13T00:29:12.713Z,97679.00
2023-03-13T00:29:22.701Z,97677.00
2023-03-13T00:29:32.727Z,97679.00
2023-03-13T00:29:42.729Z,97679.00
2023-03-13T00:29:52.747Z,97679.00
2023-03-13T00:30:02.764Z,97677.00
2023-03-13T00:30:12.932Z,97679.00
2023-03-13T00:30:22.941Z,97679.00
2023-03-13T00:30:33.286Z,97679.00
2023-03-13T00:30:43.302Z,97679.00
2023-03-13T00:30:53.369Z,97679.00
2023-03-13T00:31:03.313Z,97677.00
2023-03-13T00:31:13.367Z,97677.00
2023-03-13T00:31:23.538Z,97681.00
2023-03-13T00:31:33.568Z,97677.00
2023-03-13T00:31:43.620Z,97679.00
2023-03-13T00:31:53.752Z,97677.00
2023-03-13T00:32:03.861Z,97677.00
2023-03-13T00:32:13.932Z,97679.00
2023-03-13T00:32:23.972Z,97679.00
2023-03-13T00:32:33.981Z,97677.00
2023-03-13T00:32:44.068Z,97679.00
2023-03-13T00:32:54.116Z,97677.00
2023-03-13T00:33:04.229Z,97676.00
2023-03-13T00:33:14.224Z,97676.00
2023-03-13T00:33:24.246Z,97676.00
2023-03-13T00:33:34.260Z,97674.00
2023-03-13T00:33:44.267Z,97676.00
2023-03-13T00:33:54.286Z,97676.00
2023-03-13T00:34:04.295Z,97672.00
2023-03-13T00:34:14.291Z,97674.00
2023-03-13T00:34:24.305Z,97674.00
2023-03-13T00:34:34.353Z,97674.00
2023-03-13T00:34:44.329Z,97672.00
2023-03-13T00:34:54.336Z,97672.00
2023-03-13T00:35:04.344Z,97676.00
2023-03-13T00:35:14.363Z,97672.00
2023-03-13T00:35:24.409Z,97672.00
2023-03-13T00:35:34.521Z,97672.00
2023-03-13T00:35:44.552Z,97672.00
2023-03-13T00:35:54.632Z,97676.00
2023-03-13T00:36:04.663Z,97672.00
2023-03-13T00:36:14.909Z,97670.00
2023-03-13T00:36:24.916Z,97670.00
2023-03-13T00:36:34.937Z,97672.00
2023-03-13T00:36:44.946Z,97672.00
2023-03-13T00:36:54.955Z,97670.00
2023-03-13T00:37:04.956Z,97668.00
2023-03-13T00:37:15.012Z,97670.00
2023-03-13T00:37:24.995Z,97672.00
2023-03-13T00:37:35.135Z,97670.00
2023-03-13T00:37:45.134Z,97670.00
2023-03-13T00:37:55.391Z,97672.00
2023-03-13T00:38:05.386Z,97668.00
2023-03-13T00:38:15.511Z,97668.00
2023-03-13T00:38:25.777Z,97670.00
2023-03-13T00:38:35.786Z,97668.00
2023-03-13T00:38:45.793Z,97670.00
2023-03-13T00:38:55.806Z,97670.00
2023-03-13T00:39:05.823Z,97670.00
2023-03-13T00:39:15.950Z,97670.00
2023-03-13T00:39:25.939Z,97672.00
2023-03-13T00:39:36.074Z,97670.00
2023-03-13T00:39:46.071Z,97666.00
2023-03-13T00:39:56.196Z,97670.00
2023-03-13T00:40:06.211Z,97666.00
2023-03-13T00:40:16.211Z,97666.00
2023-03-13T00:40:26.229Z,97664.00
2023-03-13T00:40:36.220Z,97666.00
2023-03-13T00:40:46.226Z,97668.00
2023-03-13T00:40:56.227Z,97664.00
2023-03-13T00:41:06.233Z,97666.00
2023-03-13T00:41:16.245Z,97664.00
2023-03-13T00:41:26.285Z,97668.00
2023-03-13T00:41:36.275Z,97666.00
2023-03-13T00:41:46.274Z,97666.00
2023-03-13T00:41:56.298Z,97666.00
2023-03-13T00:42:06.296Z,97664.00
2023-03-13T00:42:16.312Z,97666.00
2023-03-13T00:42:26.311Z,97666.00
2023-03-13T00:42:36.350Z,97666.00
2023-03-13T00:42:46.354Z,97668.00
2023-03-13T00:42:56.751Z,97666.00
2023-03-13T00:43:06.751Z,97666.00
2023-03-13T00:43:16.750Z,97666.00
2023-03-13T00:43:26.756Z,97666.00
2023-03-13T00:43:36.756Z,97668.00
2023-03-13T00:43:46.764Z,97668.00
2023-03-13T00:43:56.782Z,97668.00
2023-03-13T00:44:06.806Z,97666.00
2023-03-13T00:44:16.813Z,97668.00
2023-03-13T00:44:26.797Z,97666.00
2023-03-13T00:44:36.805Z,97666.00
2023-03-13T00:44:46.817Z,97666.00
2023-03-13T00:44:56.831Z,97668.00
2023-03-13T00:45:06.840Z,97668.00
2023-03-13T00:45:16.959Z,97666.00
2023-03-13T00:45:26.970Z,97666.00
2023-03-13T00:45:36.964Z,97666.00
2023-03-13T00:45:47.285Z,97666.00
2023-03-13T00:45:57.319Z,97664.00
2023-03-13T00:46:07.406Z,97662.00
2023-03-13T00:46:17.827Z,97666.00
2023-03-13T00:46:27.916Z,97666.00
2023-03-13T00:46:37.873Z,97666.00
2023-03-13T00:46:47.847Z,97666.00
2023-03-13T00:46:57.844Z,97662.00
2023-03-13T00:47:07.845Z,97662.00
2023-03-13T00:47:17.972Z,97666.00
2023-03-13T00:47:27.986Z,97664.00
2023-03-13T00:47:37.992Z,97662.00
2023-03-13T00:47:47.992Z,97666.00
2023-03-13T00:47:58.264Z,97664.00
2023-03-13T00:48:08.270Z,97664.00
2023-03-13T00:48:18.391Z,97664.00
2023-03-13T00:48:28.654Z,97664.00
2023-03-13T00:48:38.667Z,97662.00
2023-03-13T00:48:48.711Z,97662.00
2023-03-13T00:48:58.699Z,97662.00
2023-03-13T00:49:08.691Z,97660.00
2023-03-13T00:49:18.693Z,97660.00
2023-03-13T00:49:28.695Z,97660.00
2023-03-13T00:49:38.731Z,97658.00
2023-03-13T00:49:48.726Z,97660.00
2023-03-13T00:49:58.725Z,97658.00
2023-03-13T00:50:08.733Z,97660.00
2023-03-13T00:50:18.747Z,97660.00
2023-03-13T00:50:28.760Z,97658.00
2023-03-13T00:50:38.767Z,97660.00
2023-03-13T00:50:48.789Z,97658.00
2023-03-13T00:50:58.789Z,97656.00
2023-03-13T00:51:08.793Z,97656.00
2023-03-13T00:51:18.802Z,97658.00
2023-03-13T00:51:28.847Z,97658.00
2023-03-13T00:51:38.820Z,97660.00
2023-03-13T00:51:48.835Z,97658.00
2023-03-13T00:51:58.848Z,97658.00
2023-03-13T00:52:08.857Z,97658.00
2023-03-13T00:52:18.886Z,97658.00
2023-03-13T00:52:28.883Z,97654.00
2023-03-13T00:52:38.884Z,97654.00
2023-03-13T00:52:48.889Z,97656.00
2023-03-13T00:52:58.899Z,97656.00
2023-03-13T00:53:08.934Z,97656.00
2023-03-13T00:53:18.923Z,97656.00
2023-03-13T00:53:28.934Z,97656.00
2023-03-13T00:53:38.973Z,97654.00
2023-03-13T00:53:49.028Z,97654.00
2023-03-13T00:53:59.024Z,97654.00
2023-03-13T00:54:09.143Z,97654.00
2023-03-13T00:54:19.152Z,97656.00
2023-03-13T00:54:29.283Z,97654.00
2023-03-13T00:54:39.275Z,97654.00
2023-03-13T00:54:49.404Z,97654.00
2023-03-13T00:54:59.403Z,97654.00
2023-03-13T00:55:09.528Z,97654.00
2023-03-13T00:55:19.795Z,97654.00
2023-03-13T00:55:29.913Z,97652.00
2023-03-13T00:55:39.914Z,97652.00
2023-03-13T00:55:50.184Z,97652.00
2023-03-13T00:56:00.193Z,97652.00
2023-03-13T00:56:10.203Z,97652.00
2023-03-13T00:56:20.209Z,97654.00
2023-03-13T00:56:30.325Z,97654.00
2023-03-13T00:56:40.326Z,97656.00
2023-03-13T00:56:50.330Z,97654.00
2023-03-13T00:57:00.356Z,97656.00
2023-03-13T00:57:10.385Z,97654.00
2023-03-13T00:57:20.412Z,97656.00
2023-03-13T00:57:30.686Z,97658.00
2023-03-13T00:57:40.671Z,97656.00
2023-03-13T00:57:50.792Z,97656.00
2023-03-13T00:58:01.067Z,97654.00
2023-03-13T00:58:11.171Z,97656.00
2023-03-13T00:58:21.179Z,97654.00
2023-03-13T00:58:31.428Z,97654.00
2023-03-13T00:58:41.439Z,97654.00
2023-03-13T00:58:51.469Z,97656.00
2023-03-13T00:59:01.475Z,97654.00
2023-03-13T00:59:11.502Z,97654.00
2023-03-13T00:59:21.473Z,97652.00
2023-03-13T00:59:31.482Z,97654.00
2023-03-13T00:59:41.483Z,97654.00
2023-03-13T00:59:51.617Z,97654.00
2023-03-13T01:00:01.621Z,97654.00
2023-03-13T01:00:11.893Z,97654.00
2023-03-13T01:00:21.909Z,97650.00
2023-03-13T01:00:32.028Z,97656.00
2023-03-13T01:00:42.295Z,97654.00
2023-03-13T01:00:52.310Z,97652.00
2023-03-13T01:01:02.348Z,97652.00
2023-03-13T01:01:12.342Z,97654.00
2023-03-13T01:01:22.384Z,97654.00
2023-03-13T01:01:32.385Z,97656.00
2023-03-13T01:01:42.382Z,97654.00
2023-03-13T01:01:52.504Z,97654.00
2023-03-13T01:02:02.558Z,97654.00
2023-03-13T01:02:12.679Z,97654.00
2023-03-13T01:02:23.000Z,97654.00
2023-03-13T01:02:33.042Z,97654.00
2023-03-13T01:02:43.032Z,97656.00
2023-03-13T01:02:53.127Z,97654.00
2023-03-13T01:03:03.103Z,97654.00
2023-03-13T01:03:13.216Z,97654.00
2023-03-13T01:03:23.262Z,97656.00
2023-03-13T01:03:33.334Z,97654.00
2023-03-13T01:03:43.332Z,97658.00
2023-03-13T01:03:53.412Z,97656.00
2023-03-13T01:04:03.421Z,97656.00
2023-03-13T01:04:13.435Z,97654.00
2023-03-13T01:04:23.429Z,97652.00
2023-03-13T01:04:33.553Z,97652.00
2023-03-13T01:04:43.590Z,97652.00
2023-03-13T01:04:53.579Z,97654.00
2023-03-13T01:05:03.578Z,97654.00
2023-03-13T01:05:13.830Z,97654.00
2023-03-13T01:05:23.842Z,97654.00
2023-03-13T01:05:33.866Z,97654.00
2023-03-13T01:05:43.860Z,97652.00
2023-03-13T01:05:53.892Z,97652.00
2023-03-13T01:06:03.988Z,97650.00
2023-03-13T01:06:13.968Z,97652.00
2023-03-13T01:06:23.974Z,97652.00
2023-03-13T01:06:33.985Z,97652.00
2023-03-13T01:06:43.978Z,97650.00
2023-03-13T01:06:54.364Z,97652.00
2023-03-13T01:07:04.377Z,97652.00
2023-03-13T01:07:14.439Z,97650.00
2023-03-13T01:07:24.436Z,97650.00
2023-03-13T01:07:34.448Z,97652.00
2023-03-13T01:07:44.446Z,97650.00
2023-03-13T01:07:54.572Z,97652.00
2023-03-13T01:08:04.574Z,97648.00
2023-03-13T01:08:14.595Z,97650.00
2023-03-13T01:08:24.578Z,97650.00
2023-03-13T01:08:34.829Z,97656.00
2023-03-13T01:08:44.855Z,97648.00
2023-03-13T01:08:54.853Z,97650.00
2023-03-13T01:09:04.869Z,97650.00
2023-03-13T01:09:14.886Z,97648.00
2023-03-13T01:09:24.878Z,97648.00
2023-03-13T01:09:34.882Z,97648.00
2023-03-13T01:09:44.888Z,97650.00
2023-03-13T01:09:54.889Z,97650.00
2023-03-13T01:10:04.896Z,97650.00
2023-03-13T01:10:14.895Z,97648.00
2023-03-13T01:10:24.899Z,97648.00
2023-03-13T01:10:35.030Z,97648.00
2023-03-13T01:10:45.034Z,97646.00
2023-03-13T01:10:55.154Z,97650.00
2023-03-13T01:11:05.157Z,97650.00
2023-03-13T01:11:15.274Z,97650.00
2023-03-13T01:11:25.309Z,97646.00
2023-03-13T01:11:35.304Z,97648.00
2023-03-13T01:11:45.294Z,97648.00
2023-03-13T01:11:55.297Z,97646.00
2023-03-13T01:12:05.306Z,97650.00
2023-03-13T01:12:15.426Z,97646.00
2023-03-13T01:12:25.427Z,97646.00
2023-03-13T01:12:35.554Z,97648.00
2023-03-13T01:12:45.557Z,97650.00
2023-03-13T01:12:55.770Z,97644.00
2023-03-13T01:13:05.784Z,97644.00
2023-03-13T01:13:15.904Z,97644.00
2023-03-13T01:13:25.904Z,97644.00
2023-03-13T01:13:36.171Z,97644.00
2023-03-13T01:13:46.184Z,97644.00
2023-03-13T01:13:56.192Z,97642.00
2023-03-13T01:14:06.199Z,97642.00
2023-03-13T01:14:16.216Z,97640.00
2023-03-13T01:14:26.220Z,97642.00
2023-03-13T01:14:36.232Z,97642.00
2023-03-13T01:14:46.238Z,97640.00
2023-03-13T01:14:56.291Z,97642.00
2023-03-13T01:15:06.289Z,97638.00
2023-03-13T01:15:16.680Z,97638.00
2023-03-13T01:15:26.679Z,97638.00
2023-03-13T01:15:36.850Z,97640.00
2023-03-13T01:15:47.159Z,97638.00
2023-03-13T01:15:57.192Z,97640.00
2023-03-13T01:16:07.240Z,97636.00
2023-03-13T01:16:17.284Z,97636.00
2023-03-13T01:16:27.337Z,97636.00
2023-03-13T01:16:37.326Z,97636.00
2023-03-13T01:16:47.325Z,97636.00
2023-03-13T01:16:57.346Z,97636.00
2023-03-13T01:17:07.345Z,97636.00
2023-03-13T01:17:17.363Z,97636.00
2023-03-13T01:17:27.364Z,97640.00
2023-03-13T01:17:37.378Z,97638.00
2023-03-13T01:17:47.381Z,97640.00
2023-03-13T01:17:57.378Z,97638.00
2023-03-13T01:18:07.416Z,97638.00
2023-03-13T01:18:17.422Z,97638.00
2023-03-13T01:18:27.421Z,97640.00
2023-03-13T01:18:37.447Z,97636.00
2023-03-13T01:18:47.462Z,97638.00
2023-03-13T01:18:57.494Z,97640.00
2023-03-13T01:19:07.505Z,97638.00
2023-03-13T01:19:17.509Z,97638.00
2023-03-13T01:19:27.532Z,97640.00
2023-03-13T01:19:37.526Z,97636.00
2023-03-13T01:19:47.562Z,97640.00
2023-03-13T01:19:57.555Z,97636.00
2023-03-13T01:20:07.556Z,97638.00
2023-03-13T01:20:17.551Z,97638.00
2023-03-13T01:20:27.554Z,97638.00
2023-03-13T01:20:37.685Z,97638.00
2023-03-13T01:20:47.696Z,97636.00
2023-03-13T01:20:57.952Z,97636.00
2023-03-13T01:21:07.956Z,97638.00
2023-03-13T01:21:18.076Z,97634.00
2023-03-13T01:21:28.344Z,97634.00
2023-03-13T01:21:38.461Z,97634.00
2023-03-13T01:21:48.479Z,97636.00
2023-03-13T01:21:58.731Z,97634.00
2023-03-13T01:22:08.742Z,97634.00
2023-03-13T01:22:18.748Z,97634.00
2023-03-13T01:22:28.758Z,97632.00
2023-03-13T01:22:38.781Z,97632.00
2023-03-13T01:22:48.782Z,97630.00
2023-03-13T01:22:58.797Z,97630.00
2023-03-13T01:23:08.803Z,97630.00
2023-03-13T01:23:18.816Z,97629.00
2023-03-13T01:23:28.826Z,97627.00
2023-03-13T01:23:38.832Z,97627.00
2023-03-13T01:23:48.855Z,97627.00
2023-03-13T01:23:58.853Z,97627.00
2023-03-13T01:24:08.865Z,97625.00
2023-03-13T01:24:18.880Z,97625.00
2023-03-13T01:24:28.879Z,97623.00
2023-03-13T01:24:38.898Z,97627.00
2023-03-13T01:24:48.896Z,97621.00
2023-03-13T01:24:58.905Z,97621.00
2023-03-13T01:25:08.897Z,97621.00
2023-03-13T01:25:19.023Z,97619.00
2023-03-13T01:25:29.034Z,97623.00
2023-03-13T01:25:39.034Z,97623.00
2023-03-13T01:25:49.032Z,97623.00
2023-03-13T01:25:59.308Z,97623.00
2023-03-13T01:26:09.317Z,97619.00
2023-03-13T01:26:19.332Z,97623.00
2023-03-13T01:26:29.370Z,97621.00
2023-03-13T01:26:39.372Z,97621.00
2023-03-13T01:26:49.375Z,97621.00
2023-03-13T01:26:59.378Z,97621.00
2023-03-13T01:27:09.391Z,97619.00
2023-03-13T01:27:19.387Z,97623.00
2023-03-13T01:27:29.414Z,97621.00
2023-03-13T01:27:39.405Z,97621.00
2023-03-13T01:27:49.413Z,97619.00
2023-03-13T01:27:59.533Z,97619.00
2023-03-13T01:28:09.547Z,97617.00
2023-03-13T01:28:19.543Z,97617.00
2023-03-13T01:28:29.553Z,97613.00
2023-03-13T01:28:39.567Z,97617.00
2023-03-13T01:28:49.827Z,97613.00
2023-03-13T01:28:59.832Z,97613.00
2023-03-13T01:29:09.839Z,97611.00
2023-03-13T01:29:19.861Z,97611.00
2023-03-13T01:29:29.856Z,97611.00
2023-03-13T01:29:40.020Z,97611.00
2023-03-13T01:29:50.010Z,97613.00
2023-03-13T01:30:00.016Z,97613.00
2023-03-13T01:30:10.018Z,97613.00
2023-03-13T01:30:20.017Z,97615.00
2023-03-13T01:30:30.276Z,97619.00
2023-03-13T01:30:40.560Z,97619.00
2023-03-13T01:30:50.522Z,97619.00
2023-03-13T01:31:00.706Z,97617.00
2023-03-13T01:31:10.730Z,97619.00
2023-03-13T01:31:20.826Z,97623.00
2023-03-13T01:31:30.882Z,97625.00
2023-03-13T01:31:40.893Z,97625.00
2023-03-13T01:31:50.896Z,97625.00
2023-03-13T01:32:00.892Z,97625.00
2023-03-13T01:32:11.021Z,97623.00
2023-03-13T01:32:21.086Z,97625.00
2023-03-13T01:32:31.099Z,97619.00
2023-03-13T01:32:41.414Z,97621.00
2023-03-13T01:32:51.454Z,97619.00
2023-03-13T01:33:01.507Z,97615.00
2023-03-13T01:33:11.892Z,97613.00
2023-03-13T01:33:21.925Z,97611.00
2023-03-13T01:33:31.913Z,97611.00
2023-03-13T01:33:41.936Z,97609.00
2023-03-13T01:33:51.956Z,97607.00
2023-03-13T01:34:01.966Z,97605.00
2023-03-13T01:34:11.972Z,97601.00
2023-03-13T01:34:21.983Z,97601.00
2023-03-13T01:34:31.977Z,97601.00
2023-03-13T01:34:42.087Z,97601.00
2023-03-13T01:34:52.397Z,97601.00
2023-03-13T01:35:02.381Z,97603.00
2023-03-13T01:35:12.504Z,97605.00
2023-03-13T01:35:22.836Z,97607.00
2023-03-13T01:35:32.937Z,97607.00
2023-03-13T01:35:42.996Z,97607.00
2023-03-13T01:35:53.214Z,97609.00
2023-03-13T01:36:03.070Z,97611.00
2023-03-13T01:36:13.068Z,97609.00
2023-03-13T01:36:23.072Z,97613.00
2023-03-13T01:36:33.335Z,97615.00
2023-03-13T01:36:43.347Z,97615.00
2023-03-13T01:36:53.355Z,97613.00
2023-03-13T01:37:03.371Z,97613.00
2023-03-13T01:37:13.371Z,97615.00
2023-03-13T01:37:23.384Z,97615.00
2023-03-13T01:37:33.509Z,97613.00
2023-03-13T01:37:43.511Z,97613.00
2023-03-13T01:37:53.528Z,97613.00
2023-03-13T01:38:03.525Z,97615.00
2023-03-13T01:38:13.783Z,97613.00
2023-03-13T01:38:23.777Z,97613.00
2023-03-13T01:38:33.786Z,97613.00
2023-03-13T01:38:43.827Z,97613.00
2023-03-13T01:38:53.808Z,97611.00
2023-03-13T01:39:03.808Z,97611.00
2023-03-13T01:39:13.814Z,97613.00
2023-03-13T01:39:23.822Z,97615.00
2023-03-13T01:39:33.832Z,97615.00
2023-03-13T01:39:43.832Z,97613.00
2023-03-13T01:39:53.838Z,97613.00
2023-03-13T01:40:03.875Z,97613.00
2023-03-13T01:40:13.906Z,97613.00
2023-03-13T01:40:23.896Z,97611.00
2023-03-13T01:40:33.908Z,97613.00
2023-03-13T01:40:43.923Z,97607.00
2023-03-13T01:40:53.925Z,97613.00
2023-03-13T01:41:03.917Z,97607.00
2023-03-13T01:41:13.934Z,97607.00
2023-03-13T01:41:23.945Z,97609.00
2023-03-13T01:41:34.100Z,97613.00
2023-03-13T01:41:44.087Z,97613.00
2023-03-13T01:41:54.206Z,97609.00
2023-03-13T01:42:04.210Z,97609.00
2023-03-13T01:42:14.345Z,97607.00
2023-03-13T01:42:24.352Z,97609.00
2023-03-13T01:42:34.357Z,97611.00
2023-03-13T01:42:44.366Z,97609.00
2023-03-13T01:42:54.377Z,97611.00
2023-03-13T01:43:06.332Z,97609.00
2023-03-13T01:43:17.580Z,97611.00
2023-03-13T01:43:26.786Z,97611.00
2023-03-13T01:43:34.497Z,97613.00
2023-03-13T01:43:44.492Z,97609.00
2023-03-13T01:43:54.494Z,97611.00
2023-03-13T01:44:04.499Z,97607.00
2023-03-13T01:44:14.631Z,97607.00
2023-03-13T01:44:24.620Z,97607.00
2023-03-13T01:44:34.749Z,97607.00
2023-03-13T01:44:44.753Z,97607.00
2023-03-13T01:44:54.875Z,97605.00
2023-03-13T01:45:05.014Z,97607.00
2023-03-13T01:45:15.030Z,97607.00
2023-03-13T01:45:25.020Z,97603.00
2023-03-13T01:45:35.038Z,97607.00
2023-03-13T01:45:45.042Z,97605.00
2023-03-13T01:45:55.145Z,97605.00
2023-03-13T01:46:05.213Z,97607.00
2023-03-13T01:46:15.296Z,97605.00
2023-03-13T01:46:25.462Z,97607.00
2023-03-13T01:46:35.445Z,97607.00
2023-03-13T01:46:45.631Z,97609.00
2023-03-13T01:46:55.665Z,97609.00
2023-03-13T01:47:05.662Z,97609.00
2023-03-13T01:47:15.667Z,97609.00
2023-03-13T01:47:25.675Z,97609.00
2023-03-13T01:47:35.695Z,97611.00
2023-03-13T01:47:48.141Z,97611.00
2023-03-13T01:47:55.807Z,97615.00
2023-03-13T01:48:05.826Z,97615.00
2023-03-13T01:48:16.079Z,97613.00
2023-03-13T01:48:26.075Z,97613.00
2023-03-13T01:48:36.194Z,97611.00
2023-03-13T01:48:46.472Z,97617.00
2023-03-13T01:48:56.577Z,97615.00
2023-03-13T01:49:06.603Z,97615.00
2023-03-13T01:49:16.845Z,97613.00
2023-03-13T01:49:26.837Z,97613.00
2023-03-13T01:49:36.955Z,97613.00
2023-03-13T01:49:47.218Z,97611.00
2023-03-13T01:49:57.254Z,97611.00
2023-03-13T01:50:07.243Z,97611.00
2023-03-13T01:50:17.247Z,97601.00
2023-03-13T01:50:27.256Z,97603.00
2023-03-13T01:50:37.267Z,97603.00
2023-03-13T01:50:47.279Z,97603.00
2023-03-13T01:50:57.290Z,97607.00
2023-03-13T01:51:07.295Z,97607.00
2023-03-13T01:51:17.305Z,97609.00
2023-03-13T01:51:27.322Z,97601.00
2023-03-13T01:51:37.333Z,97607.00
2023-03-13T01:51:47.337Z,97609.00
2023-03-13T01:51:57.345Z,97609.00
2023-03-13T01:52:07.366Z,97605.00
2023-03-13T01:52:17.367Z,97605.00
2023-03-13T01:52:27.375Z,97605.00
2023-03-13T01:52:37.385Z,97605.00
2023-03-13T01:52:47.396Z,97605.00
2023-03-13T01:52:57.426Z,97607.00
2023-03-13T01:53:07.414Z,97611.00
2023-03-13T01:53:17.424Z,97605.00
2023-03-13T01:53:27.438Z,97605.00
2023-03-13T01:53:37.442Z,97605.00
2023-03-13T01:53:47.454Z,97603.00
2023-03-13T01:53:57.468Z,97603.00
2023-03-13T01:54:07.479Z,97601.00
2023-03-13T01:54:17.488Z,97599.00
2023-03-13T01:54:27.496Z,97603.00
2023-03-13T01:54:37.618Z,97601.00
2023-03-13T01:54:47.695Z,97601.00
2023-03-13T01:54:57.964Z,97599.00
2023-03-13T01:55:07.987Z,97597.00
2023-03-13T01:55:17.978Z,97599.00
2023-03-13T01:55:27.967Z,97597.00
2023-03-13T01:55:38.101Z,97597.00
2023-03-13T01:55:48.094Z,97597.00
2023-03-13T01:55:58.099Z,97597.00
2023-03-13T01:56:08.106Z,97597.00
2023-03-13T01:56:18.231Z,97599.00
2023-03-13T01:56:28.228Z,97599.00
2023-03-13T01:56:38.356Z,97597.00
2023-03-13T01:56:48.368Z,97597.00
2023-03-13T01:56:58.366Z,97601.00
2023-03-13T01:57:08.361Z,97597.00
2023-03-13T01:57:18.371Z,97597.00
2023-03-13T01:57:28.371Z,97597.00
2023-03-13T01:57:38.492Z,97597.00
2023-03-13T01:57:48.504Z,97599.00
2023-03-13T01:57:58.501Z,97597.00